Terminal Aerodrome Forecast
Issued by NWS Hastings, NE

Home | Current Version | Previous Version | Text Only | Print | Product List | Glossary On
Versions: 1 2 3 4 5 6 7 8 9 10 11 12 13 14 15 16 17 18 19 20 21 22 23 24 25 26 27 28 29 30 31 32 33 34 35 36 37 38 39 40 41 42 43
000
FTUS43 KGID 191325 AAA
TAFGRI
TAF AMD
KGRI 191325Z 1913/2012 VRB04KT P6SM OVC008
      TEMPO 1913/1915 3SM BR
     FM191500 VRB04KT P6SM BKN010
     FM191800 VRB05KT P6SM BKN020
     FM192000 VRB06KT P6SM SCT035
     FM200700 17006KT P6SM SCT100=

USA.gov is the U.S. government's official web portal to all federal, state and local government web resources and services.